createdAt,value
2023-03-17T00:01:51.646Z,94.73
2023-03-17T00:04:19.778Z,95.67
2023-03-17T00:06:47.759Z,95.60
2023-03-17T00:09:17.225Z,95.60
2023-03-17T00:11:45.451Z,94.86
2023-03-17T00:14:12.561Z,95.10
2023-03-17T00:16:43.129Z,95.41
2023-03-17T00:19:21.828Z,95.10
2023-03-17T00:21:50.072Z,94.89
2023-03-17T00:24:17.368Z,95.17
2023-03-17T00:26:44.955Z,94.68
2023-03-17T00:29:12.226Z,94.46
2023-03-17T00:31:39.837Z,94.49
2023-03-17T00:34:08.208Z,94.88
2023-03-17T00:36:36.081Z,94.71
2023-03-17T00:39:06.672Z,94.80
2023-03-17T00:41:33.804Z,94.74
2023-03-17T00:44:00.820Z,94.93
2023-03-17T00:46:35.894Z,93.88
2023-03-17T00:51:45.004Z,94.27
2023-03-17T00:54:13.917Z,94.07
2023-03-17T00:56:42.512Z,93.99
2023-03-17T00:59:19.425Z,93.17
2023-03-17T01:01:46.911Z,93.34
2023-03-17T01:04:14.513Z,92.36
2023-03-17T01:06:42.144Z,92.59
2023-03-17T01:09:14.908Z,92.46
2023-03-17T01:11:42.374Z,93.07
2023-03-17T01:14:11.945Z,92.67
2023-03-17T01:16:39.132Z,93.23
2023-03-17T01:19:06.619Z,93.16
2023-03-17T01:21:33.938Z,93.77
2023-03-17T01:24:01.732Z,93.12
2023-03-17T01:26:28.829Z,93.24
2023-03-17T01:28:56.222Z,93.13
2023-03-17T01:31:24.605Z,93.37
2023-03-17T01:33:52.984Z,93.88
2023-03-17T01:36:20.812Z,93.82
2023-03-17T01:38:50.885Z,93.79
2023-03-17T01:41:19.305Z,93.95
2023-03-17T01:43:46.456Z,93.29
2023-03-17T01:46:47.645Z,93.48
2023-03-17T01:49:30.185Z,93.57
2023-03-17T01:52:11.803Z,93.57
2023-03-17T01:54:59.304Z,92.79
2023-03-17T01:57:56.699Z,93.26
2023-03-17T02:00:25.256Z,92.03
2023-03-17T02:02:55.661Z,92.65
2023-03-17T02:05:33.152Z,91.91
2023-03-17T02:08:00.405Z,92.34
2023-03-17T02:10:29.998Z,91.48
2023-03-17T02:12:59.914Z,92.24
2023-03-17T02:15:44.206Z,91.53
2023-03-17T02:18:12.869Z,91.79
2023-03-17T02:20:39.825Z,90.93
2023-03-17T02:23:07.934Z,91.18
2023-03-17T02:25:36.947Z,90.84
2023-03-17T02:28:11.097Z,91.50
2023-03-17T02:30:38.175Z,90.52
2023-03-17T02:33:06.133Z,90.35
2023-03-17T02:35:33.235Z,90.83
2023-03-17T02:38:01.175Z,89.86
2023-03-17T02:40:30.146Z,90.29
2023-03-17T02:42:57.660Z,90.19
2023-03-17T02:45:28.996Z,89.30
2023-03-17T02:47:57.387Z,88.45
2023-03-17T02:50:27.940Z,88.64
2023-03-17T02:52:55.213Z,89.45
2023-03-17T02:55:22.454Z,89.26
2023-03-17T02:57:49.378Z,88.67
2023-03-17T03:00:16.689Z,88.67
2023-03-17T03:02:43.908Z,88.64
2023-03-17T03:05:11.031Z,88.29
2023-03-17T03:07:38.048Z,88.96
2023-03-17T03:10:05.857Z,88.06
2023-03-17T03:12:32.834Z,88.08
2023-03-17T03:15:00.800Z,87.59
2023-03-17T03:17:27.942Z,88.63
2023-03-17T03:19:55.500Z,87.44
2023-03-17T03:22:22.510Z,87.82
2023-03-17T03:24:49.499Z,87.88
2023-03-17T03:27:17.031Z,87.98
2023-03-17T03:29:44.304Z,87.38
2023-03-17T03:32:11.344Z,87.82
2023-03-17T03:34:38.457Z,87.65
2023-03-17T03:37:06.090Z,87.41
2023-03-17T03:39:33.065Z,87.85
2023-03-17T03:42:00.110Z,87.61
2023-03-17T03:44:27.241Z,87.60
2023-03-17T03:46:54.201Z,86.55
2023-03-17T03:49:21.448Z,86.60
2023-03-17T03:51:48.674Z,86.93
2023-03-17T03:54:15.649Z,87.30
2023-03-17T03:56:42.771Z,87.09
2023-03-17T03:59:09.891Z,87.10
2023-03-17T04:01:36.869Z,86.84
2023-03-17T04:04:03.918Z,87.06
2023-03-17T04:06:30.953Z,86.78
2023-03-17T04:08:58.489Z,87.10
2023-03-17T04:11:26.014Z,86.43
2023-03-17T04:13:53.048Z,86.49
2023-03-17T04:16:20.055Z,86.38
2023-03-17T04:18:47.206Z,86.83
2023-03-17T04:21:18.497Z,86.45
2023-03-17T04:23:46.684Z,86.93
2023-03-17T04:26:13.778Z,87.11
2023-03-17T04:28:40.970Z,86.51
2023-03-17T04:31:10.224Z,86.80
2023-03-17T04:33:37.198Z,86.72
2023-03-17T04:36:04.927Z,85.60
2023-03-17T04:38:31.917Z,85.88
2023-03-17T04:40:58.932Z,86.66
2023-03-17T04:43:26.002Z,86.08
2023-03-17T04:45:53.061Z,85.65
2023-03-17T04:48:20.101Z,85.46
2023-03-17T04:50:48.109Z,86.00
2023-03-17T04:53:15.136Z,85.43
2023-03-17T04:55:42.329Z,85.92
2023-03-17T04:58:11.770Z,85.91
2023-03-17T05:00:40.538Z,86.00
2023-03-17T05:03:20.198Z,85.68
2023-03-17T05:05:53.951Z,84.58
2023-03-17T05:08:21.089Z,84.73
2023-03-17T05:10:48.206Z,85.21
2023-03-17T05:13:16.089Z,85.95
2023-03-17T05:15:51.612Z,84.89
2023-03-17T05:18:20.048Z,84.40
2023-03-17T05:20:47.203Z,84.39
2023-03-17T05:23:14.348Z,83.89
2023-03-17T05:25:41.863Z,84.00
2023-03-17T05:28:10.235Z,84.56
2023-03-17T05:30:37.365Z,83.63
2023-03-17T05:33:04.456Z,83.40
2023-03-17T05:35:31.694Z,82.55
2023-03-17T05:37:58.646Z,83.07
2023-03-17T05:40:25.639Z,82.85
2023-03-17T05:42:52.765Z,83.56
2023-03-17T05:45:19.889Z,83.47
2023-03-17T05:47:47.545Z,82.83
2023-03-17T05:50:15.073Z,82.78
2023-03-17T05:52:42.155Z,84.07
2023-03-17T05:55:09.675Z,83.09
2023-03-17T05:57:37.067Z,82.48
2023-03-17T06:00:05.500Z,81.20
2023-03-17T06:02:32.932Z,81.66
2023-03-17T06:05:00.066Z,81.86
2023-03-17T06:07:31.232Z,81.73
2023-03-17T06:10:06.868Z,81.83
2023-03-17T06:12:34.027Z,81.56
2023-03-17T06:15:01.060Z,81.76
2023-03-17T06:17:28.229Z,80.08
2023-03-17T06:19:55.347Z,79.51
2023-03-17T06:22:22.411Z,78.88
2023-03-17T06:24:49.465Z,78.99
2023-03-17T06:27:16.584Z,79.11
2023-03-17T06:29:43.785Z,78.81
2023-03-17T06:32:20.313Z,77.88
2023-03-17T06:34:48.333Z,77.14
2023-03-17T06:37:16.656Z,78.62
2023-03-17T06:39:44.003Z,77.03
2023-03-17T06:42:11.167Z,78.22
2023-03-17T06:44:38.135Z,78.36
2023-03-17T06:47:05.329Z,76.76
2023-03-17T06:49:32.823Z,77.92
2023-03-17T06:52:00.121Z,75.48
2023-03-17T06:54:29.218Z,76.06
2023-03-17T06:56:56.277Z,76.21
2023-03-17T06:59:23.361Z,76.92
2023-03-17T07:01:50.509Z,75.82
2023-03-17T07:04:17.704Z,76.21
2023-03-17T07:06:45.121Z,76.40
2023-03-17T07:09:12.461Z,74.10
2023-03-17T07:11:39.503Z,76.50
2023-03-17T07:14:06.913Z,74.37
2023-03-17T07:16:34.322Z,75.06
2023-03-17T07:19:02.279Z,75.86
2023-03-17T07:21:29.341Z,74.65
2023-03-17T07:23:56.423Z,75.22
2023-03-17T07:26:23.480Z,74.78
2023-03-17T07:28:51.002Z,74.79
2023-03-17T07:31:18.143Z,74.36
2023-03-17T07:33:45.418Z,73.24
2023-03-17T07:36:12.987Z,73.67
2023-03-17T07:38:40.037Z,73.58
2023-03-17T07:41:10.039Z,72.59
2023-03-17T07:43:37.855Z,72.97
2023-03-17T07:46:06.438Z,72.93
2023-03-17T07:48:34.598Z,72.72
2023-03-17T07:51:01.710Z,72.91
2023-03-17T07:53:28.844Z,72.03
2023-03-17T07:55:56.192Z,72.54
2023-03-17T07:58:23.266Z,72.85
2023-03-17T08:00:50.368Z,71.78
2023-03-17T08:03:17.494Z,69.95
2023-03-17T08:05:44.814Z,71.21
2023-03-17T08:08:12.844Z,71.94
2023-03-17T08:10:42.651Z,71.64
2023-03-17T08:13:09.722Z,69.72
2023-03-17T08:15:36.884Z,70.36
2023-03-17T08:18:04.192Z,70.35
2023-03-17T08:20:31.959Z,69.97
2023-03-17T08:22:59.124Z,71.39
2023-03-17T08:25:26.627Z,68.90
2023-03-17T08:27:54.290Z,69.37
2023-03-17T08:30:21.738Z,69.19
2023-03-17T08:32:48.837Z,69.18
2023-03-17T08:35:17.136Z,69.06
2023-03-17T08:37:45.492Z,67.89
2023-03-17T08:40:17.077Z,68.87
2023-03-17T08:42:44.912Z,68.06
2023-03-17T08:45:13.058Z,67.97
2023-03-17T08:47:40.434Z,69.04
2023-03-17T08:50:11.558Z,67.33
2023-03-17T08:52:38.783Z,67.28
2023-03-17T08:55:08.957Z,68.28
2023-03-17T08:57:36.375Z,66.59
2023-03-17T09:00:11.058Z,67.04
2023-03-17T09:02:40.062Z,67.68
2023-03-17T09:05:09.657Z,69.17
2023-03-17T09:07:36.845Z,66.33
2023-03-17T09:10:07.237Z,66.91
2023-03-17T09:12:34.539Z,66.52
2023-03-17T09:15:02.050Z,67.11
2023-03-17T09:17:29.204Z,67.60
2023-03-17T09:19:56.234Z,66.71
2023-03-17T09:22:23.383Z,66.31
2023-03-17T09:24:50.753Z,66.69
2023-03-17T09:27:17.973Z,67.17
2023-03-17T09:29:45.074Z,66.88
2023-03-17T09:32:12.138Z,64.98
2023-03-17T09:34:39.310Z,67.43
2023-03-17T09:37:06.915Z,66.99
2023-03-17T09:39:34.297Z,66.46
2023-03-17T09:42:19.526Z,66.31
2023-03-17T10:17:35.359Z,65.31
2023-03-17T10:20:14.937Z,66.02
2023-03-17T10:23:06.136Z,66.37
2023-03-17T10:25:36.611Z,64.78
2023-03-17T10:28:12.528Z,65.58
2023-03-17T10:30:40.350Z,64.42
2023-03-17T10:33:07.909Z,64.95
2023-03-17T10:35:39.559Z,63.63
2023-03-17T10:38:22.206Z,62.46
2023-03-17T10:41:07.572Z,63.67
2023-03-17T10:43:53.726Z,63.75
2023-03-17T10:46:24.522Z,61.75
2023-03-17T10:48:58.591Z,62.96
2023-03-17T10:51:31.788Z,62.41
2023-03-17T10:54:08.240Z,62.65
2023-03-17T10:56:42.462Z,61.07
2023-03-17T10:59:25.980Z,62.35
2023-03-17T11:01:56.448Z,61.67
2023-03-17T11:04:39.441Z,60.61
2023-03-17T11:07:20.461Z,62.51
2023-03-17T11:09:55.267Z,62.20
2023-03-17T11:12:26.954Z,61.25
2023-03-17T11:15:03.486Z,59.52
2023-03-17T11:17:30.522Z,59.64
2023-03-17T11:20:31.826Z,60.39
2023-03-17T11:23:19.589Z,60.56
2023-03-17T11:25:52.164Z,60.00
2023-03-17T11:28:21.858Z,60.98
2023-03-17T11:31:26.175Z,58.85
2023-03-17T11:34:05.651Z,58.17
2023-03-17T11:36:33.626Z,57.78
2023-03-17T11:39:05.826Z,57.60
2023-03-17T11:41:41.931Z,58.65
2023-03-17T11:44:08.839Z,57.38
2023-03-17T11:47:05.371Z,56.79
2023-03-17T11:49:37.785Z,56.91
2023-03-17T11:52:25.521Z,58.07
2023-03-17T11:55:07.994Z,57.08
2023-03-17T11:57:55.249Z,54.71
2023-03-17T12:00:33.184Z,56.74
2023-03-17T12:03:00.761Z,56.17
2023-03-17T12:05:30.194Z,54.03
2023-03-17T12:08:03.831Z,54.08
2023-03-17T12:10:39.164Z,55.95
2023-03-17T12:13:09.958Z,54.16
2023-03-17T12:15:47.385Z,54.50
2023-03-17T12:18:35.384Z,55.09
2023-03-17T12:21:22.868Z,53.47
2023-03-17T12:24:06.231Z,53.94
2023-03-17T12:26:38.182Z,54.50
2023-03-17T12:29:22.895Z,55.35
2023-03-17T12:32:02.775Z,54.51
2023-03-17T12:34:46.923Z,53.20
2023-03-17T12:37:16.241Z,54.27
2023-03-17T12:39:50.396Z,52.51
2023-03-17T12:42:17.315Z,52.36
2023-03-17T12:45:02.988Z,53.29
2023-03-17T12:47:45.417Z,53.72
2023-03-17T12:50:32.870Z,53.63
2023-03-17T12:53:29.801Z,52.22
2023-03-17T12:56:15.880Z,51.87
2023-03-17T12:58:49.650Z,52.18
2023-03-17T13:01:17.608Z,52.61
2023-03-17T13:04:01.632Z,52.48
2023-03-17T13:06:34.915Z,52.40
2023-03-17T13:09:47.060Z,50.84
2023-03-17T13:12:44.630Z,50.38
2023-03-17T13:15:46.980Z,51.61
2023-03-17T13:18:17.001Z,51.34
2023-03-17T13:21:13.085Z,49.64
2023-03-17T13:23:53.646Z,50.07
2023-03-17T13:26:42.460Z,48.45
2023-03-17T13:29:23.855Z,50.72
2023-03-17T13:31:51.089Z,50.67
2023-03-17T13:34:20.527Z,51.23
2023-03-17T13:37:19.932Z,49.29
2023-03-17T13:40:18.142Z,49.60
2023-03-17T13:42:54.651Z,49.54
2023-03-17T13:45:37.886Z,49.12
2023-03-17T13:48:37.770Z,48.66
2023-03-17T13:51:25.930Z,49.16
2023-03-17T13:54:34.069Z,49.37
2023-03-17T13:57:19.662Z,48.55
2023-03-17T14:00:07.525Z,49.72
2023-03-17T14:02:38.726Z,49.17
2023-03-17T14:05:19.356Z,49.16
2023-03-17T14:07:57.039Z,47.67
2023-03-17T14:10:28.714Z,48.53
2023-03-17T14:12:59.589Z,48.96
2023-03-17T14:15:33.036Z,48.26
2023-03-17T14:18:11.194Z,49.20
2023-03-17T14:20:38.359Z,47.60
2023-03-17T14:23:06.734Z,48.02
2023-03-17T14:25:36.731Z,48.46
2023-03-17T14:28:11.093Z,48.47
2023-03-17T14:30:38.707Z,48.33
2023-03-17T14:33:30.095Z,48.35
2023-03-17T14:36:02.769Z,47.31
2023-03-17T14:38:38.521Z,47.59
2023-03-17T14:41:07.340Z,47.41
2023-03-17T14:43:36.303Z,48.42
2023-03-17T14:46:07.772Z,47.54
2023-03-17T14:48:41.735Z,47.74
2023-03-17T14:51:30.647Z,47.82
2023-03-17T14:54:01.162Z,47.67
2023-03-17T14:56:49.040Z,48.44
2023-03-17T14:59:56.528Z,47.75
2023-03-17T15:02:38.084Z,47.77
2023-03-17T15:05:05.672Z,48.30
2023-03-17T15:07:41.501Z,48.21
2023-03-17T15:10:24.506Z,48.69
2023-03-17T15:13:01.618Z,47.31
2023-03-17T15:15:34.292Z,48.29
2023-03-17T15:18:10.657Z,48.02
2023-03-17T15:20:37.883Z,49.37
2023-03-17T15:23:17.102Z,48.80
2023-03-17T15:25:51.287Z,49.94
2023-03-17T15:28:20.893Z,48.94
2023-03-17T15:30:50.734Z,50.27
2023-03-17T15:33:29.976Z,49.75
2023-03-17T15:36:00.218Z,49.41
2023-03-17T15:38:27.770Z,48.62
2023-03-17T15:40:55.379Z,49.33
2023-03-17T15:43:23.058Z,51.25
2023-03-17T15:45:56.134Z,51.96
2023-03-17T15:48:27.756Z,52.96
2023-03-17T15:50:56.911Z,52.92
2023-03-17T15:53:23.974Z,53.32
2023-03-17T15:55:51.315Z,54.05
2023-03-17T15:58:18.341Z,54.23
2023-03-17T16:00:50.159Z,54.18
2023-03-17T16:03:26.045Z,54.50
2023-03-17T16:05:53.628Z,53.82
2023-03-17T16:08:21.932Z,54.86
2023-03-17T16:10:49.120Z,54.77
2023-03-17T16:17:38.837Z,55.71
2023-03-17T16:20:06.433Z,55.83
2023-03-17T16:22:39.648Z,55.12
2023-03-17T16:25:21.602Z,54.79
2023-03-17T16:27:49.430Z,55.99
2023-03-17T16:30:37.931Z,55.49
2023-03-17T16:33:16.767Z,55.57
2023-03-17T16:35:44.298Z,55.49
2023-03-17T16:38:14.251Z,55.34
2023-03-17T16:40:41.983Z,54.93
2023-03-17T16:43:26.254Z,55.39
2023-03-17T16:46:03.317Z,56.26
2023-03-17T16:48:31.262Z,56.84
2023-03-17T16:50:58.841Z,56.63
2023-03-17T16:53:26.359Z,56.63
2023-03-17T16:55:55.148Z,55.84
2023-03-17T16:58:25.453Z,56.65
2023-03-17T17:00:56.918Z,55.81
2023-03-17T17:03:23.950Z,56.34
2023-03-17T17:05:51.420Z,56.51
2023-03-17T17:08:18.495Z,57.19
2023-03-17T17:10:45.788Z,56.41
2023-03-17T17:13:13.053Z,56.69
2023-03-17T17:15:41.239Z,56.54
2023-03-17T17:18:14.420Z,56.27
2023-03-17T17:20:43.221Z,56.66
2023-03-17T17:24:20.178Z,56.92
2023-03-17T17:26:47.379Z,57.66
2023-03-17T17:29:17.667Z,57.63
2023-03-17T17:31:44.987Z,58.33
2023-03-17T17:34:16.412Z,57.60
2023-03-17T17:36:43.630Z,57.46
2023-03-17T17:39:14.779Z,57.50
2023-03-17T17:41:41.801Z,58.58
2023-03-17T17:44:08.915Z,58.04
2023-03-17T17:46:36.099Z,58.94
2023-03-17T17:49:03.729Z,58.76
2023-03-17T17:51:32.793Z,58.42
2023-03-17T17:53:59.886Z,58.52
2023-03-17T17:56:26.893Z,58.25
2023-03-17T17:58:54.032Z,58.82
2023-03-17T18:01:22.785Z,59.41
2023-03-17T18:03:49.763Z,59.70
2023-03-17T18:06:18.014Z,59.41
2023-03-17T18:08:45.248Z,60.11
2023-03-17T18:11:12.508Z,59.88
2023-03-17T18:13:40.387Z,61.11
2023-03-17T18:16:12.746Z,60.52
2023-03-17T18:18:42.450Z,60.00
2023-03-17T18:21:10.545Z,60.28
2023-03-17T18:23:38.891Z,61.29
2023-03-17T18:26:06.361Z,60.10
2023-03-17T18:28:34.264Z,60.74
2023-03-17T18:31:09.703Z,60.71
2023-03-17T18:33:37.444Z,60.29
2023-03-17T18:36:08.900Z,60.44
2023-03-17T18:38:36.554Z,60.79
2023-03-17T18:41:04.241Z,60.35
2023-03-17T18:43:31.503Z,60.62
2023-03-17T18:45:58.985Z,59.68
2023-03-17T18:48:26.077Z,59.68
2023-03-17T18:50:53.307Z,59.65
2023-03-17T18:53:20.410Z,58.90
2023-03-17T18:55:47.542Z,58.42
2023-03-17T18:58:15.004Z,57.21
2023-03-17T19:00:42.814Z,57.85
2023-03-17T19:03:10.190Z,57.93
2023-03-17T19:05:38.502Z,57.81
2023-03-17T19:08:06.824Z,56.91
2023-03-17T19:10:34.620Z,56.30
2023-03-17T19:13:02.031Z,57.62
2023-03-17T19:15:29.441Z,55.65
2023-03-17T19:17:56.651Z,55.50
2023-03-17T19:20:23.672Z,54.63
2023-03-17T19:22:53.329Z,55.32
2023-03-17T19:25:21.390Z,55.85
2023-03-17T19:27:48.505Z,55.26
2023-03-17T19:30:16.273Z,55.25
2023-03-17T19:32:43.650Z,54.17
2023-03-17T19:35:11.761Z,55.47
2023-03-17T19:37:39.176Z,54.91
2023-03-17T19:40:09.660Z,54.18
2023-03-17T19:42:37.227Z,54.87
2023-03-17T19:45:05.012Z,54.88
2023-03-17T19:47:31.999Z,54.73
2023-03-17T19:49:59.051Z,53.69
2023-03-17T19:52:26.237Z,53.93
2023-03-17T19:54:53.966Z,53.76
2023-03-17T19:57:22.336Z,54.32
2023-03-17T19:59:49.463Z,53.95
2023-03-17T20:02:17.228Z,54.23
2023-03-17T20:04:44.699Z,54.31
2023-03-17T20:07:11.967Z,52.96
2023-03-17T20:09:39.484Z,53.92
2023-03-17T20:12:06.768Z,54.90
2023-03-17T20:14:34.356Z,54.27
2023-03-17T20:17:01.582Z,53.87
2023-03-17T20:19:29.297Z,54.65
2023-03-17T20:21:58.619Z,53.92
2023-03-17T20:24:27.149Z,54.65
2023-03-17T20:26:56.944Z,54.76
2023-03-17T20:29:24.485Z,54.03
2023-03-17T20:31:51.880Z,52.99
2023-03-17T20:34:20.058Z,52.51
2023-03-17T20:36:48.245Z,53.60
2023-03-17T20:39:20.007Z,52.37
2023-03-17T20:41:48.600Z,53.70
2023-03-17T20:44:16.699Z,52.67
2023-03-17T20:46:44.732Z,52.32
2023-03-17T20:49:12.499Z,52.89
2023-03-17T20:51:40.978Z,53.23
2023-03-17T20:54:08.858Z,52.80
2023-03-17T20:56:37.482Z,52.63
2023-03-17T20:59:05.532Z,52.96
2023-03-17T21:01:35.875Z,52.77
2023-03-17T21:04:06.554Z,52.31
2023-03-17T21:06:34.412Z,52.39
2023-03-17T21:09:02.534Z,53.29
2023-03-17T21:11:30.744Z,52.38
2023-03-17T21:13:58.045Z,52.37
2023-03-17T21:16:27.918Z,53.38
2023-03-17T21:18:54.962Z,53.01
2023-03-17T21:21:22.711Z,52.08
2023-03-17T21:23:49.708Z,51.77
2023-03-17T21:27:26.236Z,51.76
2023-03-17T21:29:53.439Z,52.66
2023-03-17T21:32:20.471Z,51.60
2023-03-17T21:34:48.249Z,52.28
2023-03-17T21:37:18.390Z,51.97
2023-03-17T21:39:45.981Z,52.65
2023-03-17T21:42:13.767Z,52.97
2023-03-17T21:44:40.843Z,52.77
2023-03-17T21:47:08.250Z,53.15
2023-03-17T21:49:35.367Z,54.14
2023-03-17T21:52:02.532Z,53.66
2023-03-17T21:54:30.586Z,54.25
2023-03-17T21:56:58.438Z,53.34
2023-03-17T21:59:25.630Z,52.86
2023-03-17T22:01:53.195Z,53.89
2023-03-17T22:04:20.776Z,54.39
2023-03-17T22:06:47.860Z,54.66
2023-03-17T22:09:16.960Z,54.58
2023-03-17T22:11:45.168Z,54.27
2023-03-17T22:14:13.423Z,54.43
2023-03-17T22:16:40.561Z,55.19
2023-03-17T22:19:09.934Z,55.11
2023-03-17T22:21:37.015Z,55.08
2023-03-17T22:24:04.418Z,55.64
2023-03-17T22:26:31.393Z,55.43
2023-03-17T22:28:59.754Z,55.72
2023-03-17T22:31:29.494Z,55.54
2023-03-17T22:33:58.247Z,56.12
2023-03-17T22:36:26.627Z,56.05
2023-03-17T22:38:54.700Z,56.41
2023-03-17T22:41:24.945Z,55.75
2023-03-17T22:43:52.138Z,56.24
2023-03-17T22:46:20.176Z,55.71
2023-03-17T22:48:47.918Z,55.89
2023-03-17T22:51:18.152Z,55.19
2023-03-17T22:53:45.428Z,55.48
2023-03-17T22:56:14.009Z,55.00
2023-03-17T22:58:41.634Z,55.60
2023-03-17T23:01:10.726Z,54.73
2023-03-17T23:07:59.797Z,55.44
2023-03-17T23:10:27.509Z,55.63
2023-03-17T23:12:54.792Z,55.58
2023-03-17T23:15:22.149Z,55.27
2023-03-17T23:17:49.224Z,55.01
2023-03-17T23:20:17.519Z,54.59
2023-03-17T23:22:44.557Z,55.04
2023-03-17T23:25:13.715Z,54.67
2023-03-17T23:27:41.494Z,55.12
2023-03-17T23:30:11.276Z,55.87
2023-03-17T23:32:40.758Z,55.54
2023-03-17T23:36:17.086Z,54.96
2023-03-17T23:38:45.595Z,55.70
2023-03-17T23:41:13.503Z,55.65
2023-03-17T23:43:41.652Z,56.68
2023-03-17T23:46:08.804Z,56.02
2023-03-17T23:48:36.057Z,56.30
2023-03-17T23:51:03.399Z,56.54
2023-03-17T23:53:31.532Z,56.00
2023-03-17T23:55:59.864Z,56.88
2023-03-17T23:58:27.757Z,56.75
